createdAt,value
2023-06-29T00:02:44.798Z,101454.94
2023-06-29T00:12:46.115Z,101439.06
2023-06-29T00:22:47.404Z,101427.72
2023-06-29T00:32:48.713Z,101419.72
2023-06-29T00:42:50.159Z,101422.53
2023-06-29T00:52:51.454Z,101412.97
2023-06-29T01:02:52.778Z,101401.28
2023-06-29T01:12:54.072Z,101404.84
2023-06-29T01:22:55.382Z,101396.09
2023-06-29T01:32:56.764Z,101385.50
2023-06-29T01:42:58.081Z,101370.41
2023-06-29T01:52:59.340Z,101374.06
2023-06-29T02:03:00.685Z,101377.81
2023-06-29T02:13:02.057Z,101364.34
2023-06-29T02:23:03.349Z,101358.38
2023-06-29T02:33:04.717Z,101348.50
2023-06-29T02:43:05.989Z,101341.56
2023-06-29T02:53:07.236Z,101328.53
2023-06-29T03:03:08.724Z,101327.34
2023-06-29T03:13:10.086Z,101331.00
2023-06-29T03:23:11.386Z,101330.06
2023-06-29T03:33:12.679Z,101316.94
2023-06-29T03:43:13.971Z,101317.00
2023-06-29T03:53:15.234Z,101319.59
2023-06-29T04:03:16.540Z,101302.19
2023-06-29T04:13:17.969Z,101294.53
2023-06-29T04:23:19.243Z,101296.38
2023-06-29T04:33:20.566Z,101281.97
2023-06-29T04:43:21.928Z,101290.25
2023-06-29T04:53:23.224Z,101287.91
2023-06-29T05:03:24.623Z,101288.09
2023-06-29T05:13:25.978Z,101284.16
2023-06-29T05:23:27.248Z,101288.69
2023-06-29T05:33:29.729Z,101276.50
2023-06-29T05:43:31.037Z,101279.47
2023-06-29T05:53:32.351Z,101266.91
2023-06-29T06:03:33.662Z,101267.41
2023-06-29T06:13:41.342Z,101279.75
2023-06-29T06:23:42.631Z,101266.34
2023-06-29T06:33:43.895Z,101270.75
2023-06-29T06:43:45.235Z,101269.44
2023-06-29T06:53:46.547Z,101261.91
2023-06-29T07:03:55.357Z,101260.91
2023-06-29T07:14:03.455Z,101269.28
2023-06-29T07:24:11.412Z,101260.44
2023-06-29T07:34:19.353Z,101259.56
2023-06-29T07:44:28.357Z,101255.31
2023-06-29T07:54:36.364Z,101246.69
2023-06-29T08:14:50.929Z,101240.47
2023-06-29T08:24:59.615Z,101247.28
2023-06-29T08:35:11.506Z,101251.53
2023-06-29T08:45:17.126Z,101242.94
2023-06-29T08:55:24.677Z,101241.72
2023-06-29T09:05:29.272Z,101224.22
2023-06-29T09:15:38.592Z,101229.63
2023-06-29T09:25:51.303Z,101231.41
2023-06-29T09:35:59.448Z,101226.03
2023-06-29T09:46:07.416Z,101237.94
2023-06-29T09:56:15.406Z,101230.84
2023-06-29T10:06:23.571Z,101228.31
2023-06-29T10:16:32.480Z,101232.81
2023-06-29T10:26:44.298Z,101227.47
2023-06-29T10:36:47.883Z,101237.75
2023-06-29T10:46:56.589Z,101227.19
2023-06-29T10:57:00.937Z,101223.66
2023-06-29T11:17:31.244Z,101214.53
2023-06-29T11:27:32.549Z,101208.31
2023-06-29T11:37:41.507Z,101200.81
2023-06-29T11:47:46.491Z,101197.22
2023-06-29T11:57:54.277Z,101175.09
2023-06-29T12:08:02.011Z,101164.50
2023-06-29T12:18:08.863Z,101166.91
2023-06-29T12:28:15.638Z,101148.63
2023-06-29T12:38:24.868Z,101144.00
2023-06-29T12:48:32.524Z,101150.13
2023-06-29T12:58:42.958Z,101146.25
2023-06-29T13:08:54.531Z,101151.53
2023-06-29T13:18:56.530Z,101157.41
2023-06-29T13:29:06.675Z,101175.56
2023-06-29T13:39:17.406Z,101191.16
2023-06-29T13:59:48.881Z,101183.72
2023-06-29T14:09:50.194Z,101183.72
2023-06-29T14:19:51.551Z,101170.09
2023-06-29T14:30:02.476Z,101180.03
2023-06-29T14:40:07.710Z,101169.44
2023-06-29T14:50:15.658Z,101163.66
2023-06-29T15:00:25.238Z,101152.97
2023-06-29T15:20:55.484Z,101129.81
2023-06-29T15:40:58.256Z,101118.16
2023-06-29T15:51:03.956Z,101112.75
2023-06-29T16:01:14.282Z,101109.47
2023-06-29T16:11:19.582Z,101104.69
2023-06-29T16:21:29.899Z,101107.34
2023-06-29T16:31:38.840Z,101118.03
2023-06-29T16:41:46.676Z,101119.91
2023-06-29T16:51:54.722Z,101118.03
2023-06-29T17:02:02.788Z,101122.44
2023-06-29T17:12:11.752Z,101133.81
2023-06-29T17:22:19.729Z,101130.19
2023-06-29T17:32:27.691Z,101141.75
2023-06-29T17:42:35.657Z,101154.09
2023-06-29T17:52:44.653Z,101159.69
2023-06-29T18:02:53.710Z,101188.72
2023-06-29T18:12:57.738Z,101197.63
2023-06-29T18:33:28.111Z,101205.06
2023-06-29T18:43:29.386Z,101224.00
2023-06-29T18:53:30.682Z,101224.19
2023-06-29T19:03:32.068Z,101233.34
2023-06-29T19:13:33.494Z,101240.88
2023-06-29T19:23:34.763Z,101249.50
2023-06-29T19:33:36.057Z,101256.03
2023-06-29T19:43:37.316Z,101300.16
2023-06-29T19:53:38.575Z,101298.97
2023-06-29T20:03:39.926Z,101311.47
2023-06-29T20:13:41.291Z,101311.84
2023-06-29T20:23:42.632Z,101321.38
2023-06-29T20:33:44.034Z,101302.47
2023-06-29T20:43:45.374Z,101321.47
2023-06-29T20:53:46.707Z,101331.66
2023-06-29T21:03:48.139Z,101333.81
2023-06-29T21:13:49.522Z,101319.84
2023-06-29T21:23:50.835Z,101329.81
2023-06-29T21:33:52.129Z,101330.41
2023-06-29T21:43:53.389Z,101312.84
2023-06-29T21:53:54.653Z,101307.91
2023-06-29T22:03:55.962Z,101300.16
2023-06-29T22:13:57.247Z,101318.06
2023-06-29T22:23:58.547Z,101309.13
2023-06-29T22:33:59.849Z,101291.63
2023-06-29T22:44:01.131Z,101301.09
2023-06-29T22:54:02.399Z,101297.41
2023-06-29T23:04:03.869Z,101304.59
2023-06-29T23:14:05.257Z,101291.56
2023-06-29T23:24:06.526Z,101296.25
2023-06-29T23:34:07.841Z,101284.84
2023-06-29T23:44:09.222Z,101291.91
2023-06-29T23:54:10.541Z,101288.50
